Time;durP1;ratioP1;P1;durP2;ratioP2;P2;SDS_P1;SDS_P2;PMS_P1;PMS_P2;Temp;Humidity;BMP_temperature;BMP_pressure;BME280_temperature;BME280_humidity;BME280_pressure;Samples;Min_cycle;Max_cycle;Signal;HPM_P1;HPM_P2
2023/08/18 00:01:29;;;;;;;6.00;4.93;;;;;;;22.49;48.42;101617.53;16112815;19;131043;-55
2023/08/18 00:06:51;;;;;;;6.22;4.70;;;;;;;22.50;48.43;101610.03;16106095;19;129910;-54
2023/08/18 00:12:13;;;;;;;5.95;5.30;;;;;;;22.50;48.13;101601.66;16112680;19;129553;-54
2023/08/18 00:17:35;;;;;;;7.18;5.13;;;;;;;22.48;48.64;101606.63;16113080;19;129801;-55
2023/08/18 00:22:57;;;;;;;6.95;4.88;;;;;;;22.48;48.53;101604.69;16109372;19;129571;-54
2023/08/18 00:28:19;;;;;;;7.25;5.13;;;;;;;22.48;48.21;101606.63;16109406;19;129573;-53
2023/08/18 00:33:41;;;;;;;6.03;4.90;;;;;;;22.48;48.58;101603.84;16113681;19;130318;-53
2023/08/18 00:39:03;;;;;;;6.88;5.43;;;;;;;22.48;48.52;101603.84;16120172;19;129886;-55
2023/08/18 00:44:25;;;;;;;8.57;5.35;;;;;;;22.47;48.60;101603.00;16124114;19;130024;-51
2023/08/18 00:49:48;;;;;;;7.35;5.35;;;;;;;22.49;48.66;101605.53;16124205;19;131309;-51
2023/08/18 00:55:11;;;;;;;6.35;5.25;;;;;;;22.47;48.50;101599.38;16123703;19;129704;-55
2023/08/18 01:00:33;;;;;;;6.57;5.55;;;;;;;22.47;48.60;101597.41;16119975;19;131159;-53
2023/08/18 01:05:55;;;;;;;8.32;6.78;;;;;;;22.46;48.61;101589.31;16121775;19;129238;-48
2023/08/18 01:11:47;;;;;;;7.43;5.32;;;;;;;22.47;48.73;101579.84;16121180;19;130822;-52
2023/08/18 01:17:24;;;;;;;7.05;5.90;;;;;;;22.47;48.59;101575.09;16126670;19;129419;-54
2023/08/18 01:22:58;;;;;;;10.18;6.43;;;;;;;22.46;48.94;101579.03;16127485;19;130306;-48
2023/08/18 01:28:19;;;;;;;6.78;6.03;;;;;;;22.44;48.76;101584.84;16124413;19;129679;-51
2023/08/18 01:33:54;;;;;;;6.10;5.50;;;;;;;22.47;48.79;101571.50;16127900;19;131009;-50
2023/08/18 01:39:19;;;;;;;7.85;6.43;;;;;;;22.45;48.81;101566.19;16121501;19;129368;-53
2023/08/18 01:44:41;;;;;;;9.30;6.68;;;;;;;22.44;48.73;101561.72;16121060;19;129395;-54
2023/08/18 01:50:03;;;;;;;8.40;6.78;;;;;;;22.43;48.88;101563.63;16121435;19;131794;-54
2023/08/18 01:55:25;;;;;;;9.40;6.97;;;;;;;22.43;48.78;101560.84;16115300;19;129854;-53
2023/08/18 02:00:52;;;;;;;10.65;6.85;;;;;;;22.45;48.59;101560.59;16119986;19;130197;-51
2023/08/18 02:06:14;;;;;;;9.95;6.57;;;;;;;22.42;48.74;101558.31;16117260;19;129574;-53
2023/08/18 02:11:36;;;;;;;10.02;8.55;;;;;;;22.42;49.10;101556.38;16115891;19;129321;-54
2023/08/18 02:16:58;;;;;;;9.98;7.70;;;;;;;22.41;48.82;101551.88;16119444;19;133348;-54
2023/08/18 02:22:20;;;;;;;11.05;7.70;;;;;;;22.42;48.81;101563.91;16116631;19;131443;-53
2023/08/18 02:27:42;;;;;;;9.85;8.48;;;;;;;22.41;48.82;101554.69;16115516;19;130274;-55
2023/08/18 02:33:04;;;;;;;12.50;8.90;;;;;;;22.41;48.95;101543.53;16114947;19;130663;-54
2023/08/18 02:38:27;;;;;;;11.38;9.35;;;;;;;22.41;48.90;101546.31;16115145;19;129754;-54
2023/08/18 02:43:49;;;;;;;11.18;9.43;;;;;;;22.41;48.99;101556.63;16113193;19;129369;-52
2023/08/18 02:49:11;;;;;;;10.77;9.52;;;;;;;22.40;49.23;101553.00;16113647;19;130255;-55
2023/08/18 02:54:33;;;;;;;13.27;10.07;;;;;;;22.40;48.97;101547.41;16112359;19;130664;-52
2023/08/18 02:59:55;;;;;;;13.38;10.30;;;;;;;22.40;48.96;101547.41;16109724;19;129395;-54
2023/08/18 03:05:17;;;;;;;10.18;8.50;;;;;;;22.39;48.76;101542.09;16111804;19;130267;-51
2023/08/18 03:10:39;;;;;;;13.38;10.32;;;;;;;22.38;48.68;101538.50;16112606;19;129906;-54
2023/08/18 03:16:02;;;;;;;12.82;10.68;;;;;;;22.37;48.91;101520.06;16110267;19;129609;-52
2023/08/18 03:21:24;;;;;;;13.75;10.95;;;;;;;22.38;48.97;101527.34;16111141;19;131001;-55
2023/08/18 03:26:46;;;;;;;12.45;10.00;;;;;;;22.37;48.98;101541.50;16113348;19;129613;-54
2023/08/18 03:32:08;;;;;;;14.57;11.15;;;;;;;22.36;48.86;101540.69;16110003;19;131191;-52
2023/08/18 03:37:30;;;;;;;13.57;10.73;;;;;;;22.36;48.93;101521.16;16110556;19;130562;-53
2023/08/18 03:42:52;;;;;;;14.63;10.90;;;;;;;22.35;48.99;101527.84;16104810;19;131344;-53
2023/08/18 03:48:16;;;;;;;13.25;9.20;;;;;;;22.35;49.06;101533.41;16095677;19;131651;-51
2023/08/18 03:53:38;;;;;;;12.05;9.70;;;;;;;22.34;49.24;101534.53;16097529;19;131134;-55
2023/08/18 03:58:59;;;;;;;13.85;11.10;;;;;;;22.35;48.85;101536.22;16099689;19;130932;-54
2023/08/18 04:04:21;;;;;;;14.82;11.95;;;;;;;22.35;48.88;101529.78;16107539;19;129327;-54
2023/08/18 04:09:43;;;;;;;15.02;12.20;;;;;;;22.35;49.01;101521.41;16107570;19;131209;-52
2023/08/18 04:15:07;;;;;;;16.70;13.57;;;;;;;22.34;48.92;101520.59;16119928;19;130445;-57
2023/08/18 04:20:29;;;;;;;18.42;14.05;;;;;;;22.34;48.72;101526.16;16121625;19;129293;-59
2023/08/18 04:25:51;;;;;;;17.63;12.90;;;;;;;22.33;48.76;101518.88;16122977;19;129849;-56
2023/08/18 04:31:13;;;;;;;19.13;13.63;;;;;;;22.32;48.87;101528.34;16118634;19;129348;-54
2023/08/18 04:36:35;;;;;;;19.15;14.15;;;;;;;22.32;49.01;101527.53;16114826;19;129475;-53
2023/08/18 04:41:57;;;;;;;18.75;14.80;;;;;;;22.31;48.83;101529.44;16119312;19;130930;-59
2023/08/18 04:47:19;;;;;;;17.17;13.57;;;;;;;22.31;48.98;101529.44;16118298;19;129547;-57
2023/08/18 04:52:41;;;;;;;17.58;14.18;;;;;;;22.30;49.06;101529.72;16119720;19;129751;-55
2023/08/18 04:58:03;;;;;;;20.55;14.43;;;;;;;22.30;48.94;101536.13;16120922;19;132895;-55
2023/08/18 05:03:25;;;;;;;18.83;14.52;;;;;;;22.30;48.79;101546.44;16115637;19;130661;-57
2023/08/18 05:08:47;;;;;;;17.70;13.43;;;;;;;22.30;48.92;101547.28;16121573;19;129503;-53
2023/08/18 05:14:09;;;;;;;16.13;12.70;;;;;;;22.28;48.71;101532.75;16115908;19;129286;-54
2023/08/18 05:19:32;;;;;;;18.20;13.93;;;;;;;22.26;48.92;101519.06;16115690;19;129372;-54
2023/08/18 05:24:54;;;;;;;17.65;14.00;;;;;;;22.27;48.54;101529.13;16114058;19;130531;-53
2023/08/18 05:30:17;;;;;;;15.13;12.33;;;;;;;22.28;48.65;101532.75;15967436;19;2957651;-52
2023/08/18 05:35:39;;;;;;;16.08;12.52;;;;;;;22.27;48.84;101536.66;16120066;19;130035;-54
2023/08/18 05:41:06;;;;;;;15.35;12.80;;;;;;;22.27;48.73;101536.66;16119407;19;129923;-55
2023/08/18 05:46:32;;;;;;;15.13;11.82;;;;;;;22.26;49.22;101523.81;16116512;19;131002;-50
2023/08/18 05:51:54;;;;;;;15.60;12.35;;;;;;;22.25;48.80;101511.81;16117993;19;131088;-55
2023/08/18 05:57:16;;;;;;;16.52;11.93;;;;;;;22.25;48.86;101522.13;16121298;19;129634;-51
2023/08/18 06:02:37;;;;;;;16.33;12.40;;;;;;;22.25;48.91;101511.81;16119073;19;129387;-54
2023/08/18 06:07:59;;;;;;;16.75;11.65;;;;;;;22.25;49.05;101509.03;16120800;19;129414;-54
2023/08/18 06:13:21;;;;;;;16.85;12.20;;;;;;;22.23;49.11;101519.59;16115128;19;129789;-51
2023/08/18 06:18:43;;;;;;;17.25;12.23;;;;;;;22.23;49.22;101504.81;16119423;19;130835;-54
2023/08/18 06:24:06;;;;;;;16.63;11.60;;;;;;;22.24;49.04;101514.88;16115433;19;129874;-50
2023/08/18 06:29:28;;;;;;;14.18;10.80;;;;;;;22.22;48.67;101506.75;16113169;19;129780;-50
2023/08/18 06:34:51;;;;;;;15.52;11.02;;;;;;;22.21;48.61;101515.38;16113648;19;129948;-54
2023/08/18 06:40:13;;;;;;;15.18;10.88;;;;;;;22.22;48.81;101522.63;16118402;19;130762;-53
2023/08/18 06:45:35;;;;;;;12.27;10.50;;;;;;;22.21;48.62;101518.16;16115809;19;129579;-51
2023/08/18 06:50:57;;;;;;;16.52;9.88;;;;;;;22.21;48.72;101523.72;16117102;19;129474;-55
2023/08/18 06:56:19;;;;;;;13.70;10.23;;;;;;;22.21;48.81;101523.72;16113323;19;130205;-53
2023/08/18 07:01:41;;;;;;;14.32;10.45;;;;;;;22.20;48.92;101525.66;16112247;19;130175;-56
2023/08/18 07:07:04;;;;;;;17.80;11.90;;;;;;;22.21;48.88;101532.09;16117527;19;129942;-53
2023/08/18 07:12:25;;;;;;;16.73;11.57;;;;;;;22.21;48.54;101526.53;16114361;19;130311;-53
2023/08/18 07:17:48;;;;;;;17.42;13.02;;;;;;;22.20;48.84;101519.22;16114626;19;129731;-55
2023/08/18 07:23:10;;;;;;;18.20;13.15;;;;;;;22.19;48.88;101514.75;16110645;19;129662;-52
2023/08/18 07:28:32;;;;;;;16.25;11.93;;;;;;;22.19;48.90;101514.75;16110925;19;130280;-51
2023/08/18 07:33:54;;;;;;;16.70;13.20;;;;;;;22.19;49.07;101520.31;16114743;19;130396;-52
2023/08/18 07:39:16;;;;;;;17.75;12.13;;;;;;;22.17;48.84;101523.38;16111710;19;129728;-52
2023/08/18 07:44:38;;;;;;;17.67;13.15;;;;;;;22.18;49.00;101521.41;16111892;19;134460;-54
2023/08/18 07:50:00;;;;;;;15.90;12.48;;;;;;;22.18;48.90;101529.78;16113665;19;130463;-57
2023/08/18 07:55:22;;;;;;;15.90;12.70;;;;;;;22.18;49.16;101529.78;16116969;19;130133;-53
2023/08/18 08:00:44;;;;;;;18.13;13.55;;;;;;;22.17;48.85;101530.88;16114035;19;129477;-55
2023/08/18 08:06:06;;;;;;;15.52;12.45;;;;;;;22.17;48.98;101533.66;16111744;19;129663;-52
2023/08/18 08:11:28;;;;;;;22.20;13.40;;;;;;;22.18;49.31;101536.22;16109227;19;130358;-53
2023/08/18 08:16:50;;;;;;;17.33;12.05;;;;;;;22.20;48.56;101541.53;16112924;19;130024;-53
2023/08/18 08:22:12;;;;;;;16.63;11.98;;;;;;;22.22;48.93;101540.19;16108628;19;129235;-54
2023/08/18 08:27:34;;;;;;;21.88;13.15;;;;;;;22.25;49.15;101544.44;16104390;19;129371;-54
2023/08/18 08:32:57;;;;;;;17.25;12.70;;;;;;;22.26;48.81;101543.34;16104902;19;130943;-54
2023/08/18 08:38:19;;;;;;;18.30;12.15;;;;;;;22.26;49.04;101541.38;16107256;19;129941;-55
2023/08/18 08:43:41;;;;;;;17.42;12.73;;;;;;;22.30;48.97;101554.81;16108463;19;129442;-55
2023/08/18 08:49:07;;;;;;;15.85;12.40;;;;;;;22.30;49.00;101552.00;16108409;19;130694;-56
2023/08/18 08:54:31;;;;;;;15.43;12.25;;;;;;;22.33;48.87;101540.38;16109587;19;129760;-55
2023/08/18 08:59:54;;;;;;;18.60;12.52;;;;;;;22.35;48.85;101544.56;16117818;19;129758;-56
2023/08/18 09:05:16;;;;;;;16.30;11.27;;;;;;;22.36;48.73;101540.69;16119545;19;129624;-52
2023/08/18 09:10:39;;;;;;;16.05;11.15;;;;;;;22.38;48.76;101538.50;16123783;19;134476;-55
2023/08/18 09:16:07;;;;;;;13.88;11.40;;;;;;;22.40;48.86;101539.06;16123986;19;130551;-55
2023/08/18 09:21:32;;;;;;;15.05;12.20;;;;;;;22.41;48.57;101548.28;16123588;19;130227;-54
2023/08/18 09:27:04;;;;;;;16.30;12.05;;;;;;;22.42;48.56;101549.97;16124493;19;129563;-54
2023/08/18 09:32:27;;;;;;;13.57;11.68;;;;;;;22.42;48.52;101550.78;16121632;19;131631;-51
2023/08/18 09:37:57;;;;;;;17.02;13.77;;;;;;;22.44;48.93;101548.59;16121902;19;130267;-55
2023/08/18 09:43:19;;;;;;;18.77;14.55;;;;;;;22.43;48.59;101552.47;16121826;19;129810;-56
2023/08/18 09:48:46;;;;;;;16.70;12.25;;;;;;;22.44;48.78;101534.66;16121647;19;129964;-55
2023/08/18 09:54:11;;;;;;;14.75;11.90;;;;;;;22.46;48.92;101517.69;16122465;19;129578;-55
2023/08/18 09:59:38;;;;;;;16.67;11.80;;;;;;;22.48;48.76;101520.22;16123203;19;129851;-54
2023/08/18 10:05:01;;;;;;;17.90;12.55;;;;;;;22.51;48.90;101519.69;16121107;19;130224;-53
2023/08/18 10:10:24;;;;;;;17.20;12.80;;;;;;;22.54;48.47;101508.88;16116925;19;135307;-56
2023/08/18 10:15:47;;;;;;;17.77;12.70;;;;;;;22.55;48.72;101509.69;16121159;19;129337;-55
2023/08/18 10:21:11;;;;;;;13.35;11.70;;;;;;;22.55;48.48;101506.91;16110256;19;130653;-56
2023/08/18 10:26:35;;;;;;;19.70;13.30;;;;;;;22.58;48.67;101506.41;16115578;19;131200;-55
2023/08/18 10:31:58;;;;;;;14.53;12.57;;;;;;;22.59;48.56;101494.13;16119662;19;129663;-55
2023/08/18 10:37:22;;;;;;;16.25;12.48;;;;;;;22.64;48.39;101496.16;16116603;19;129871;-56
2023/08/18 10:42:44;;;;;;;16.02;12.65;;;;;;;22.67;48.50;101485.31;16113579;19;130138;-52
2023/08/18 10:48:08;;;;;;;15.23;12.35;;;;;;;22.70;48.21;101478.38;16118459;19;129907;-53
2023/08/18 10:53:36;;;;;;;20.30;14.05;;;;;;;22.72;48.61;101474.22;16119854;19;129401;-52
2023/08/18 10:58:58;;;;;;;18.30;14.40;;;;;;;22.74;48.50;101466.44;16118973;19;129337;-53
2023/08/18 11:04:20;;;;;;;20.33;14.68;;;;;;;22.77;48.95;101453.91;16117677;19;129159;-55
2023/08/18 11:09:42;;;;;;;17.48;14.30;;;;;;;22.79;48.55;101445.25;16118698;19;130409;-55
2023/08/18 11:15:06;;;;;;;20.65;16.00;;;;;;;22.82;48.70;101437.25;16114074;19;130434;-52
2023/08/18 11:20:28;;;;;;;21.40;15.60;;;;;;;22.85;48.81;101438.66;16115001;19;130013;-54
2023/08/18 11:25:50;;;;;;;22.55;15.13;;;;;;;22.86;48.86;101443.97;16113964;19;129988;-52
2023/08/18 11:31:13;;;;;;;19.95;15.00;;;;;;;22.88;48.67;101443.72;16111410;19;129582;-58
2023/08/18 11:36:35;;;;;;;21.98;16.40;;;;;;;22.89;48.98;101437.03;16115428;19;130171;-52
2023/08/18 11:41:57;;;;;;;21.45;17.10;;;;;;;22.87;49.06;101423.31;16115173;19;129874;-56
2023/08/18 11:47:20;;;;;;;21.23;16.85;;;;;;;22.88;49.24;101415.81;16112428;19;130067;-59
2023/08/18 11:52:47;;;;;;;20.15;15.85;;;;;;;22.86;49.25;101396.53;16113712;19;131144;-58
2023/08/18 11:58:16;;;;;;;23.80;15.75;;;;;;;22.84;49.13;101397.91;16102771;19;131219;-53
2023/08/18 12:03:39;;;;;;;23.92;17.20;;;;;;;22.82;49.05;101394.53;16103851;19;131046;-51
2023/08/18 12:09:05;;;;;;;40.72;25.70;;;;;;;22.79;50.48;101400.63;16100099;19;130918;-52
2023/08/18 12:14:27;;;;;;;41.50;27.02;;;;;;;22.84;50.71;101395.13;16105877;19;130648;-51
2023/08/18 12:19:49;;;;;;;48.95;28.98;;;;;;;22.92;50.96;101400.25;16109236;19;129307;-52
2023/08/18 12:25:11;;;;;;;61.17;34.53;;;;;;;22.95;52.06;101391.34;16107652;19;129515;-53
2023/08/18 12:30:33;;;;;;;60.45;36.75;;;;;;;22.97;52.26;101389.16;16106664;19;131367;-52
2023/08/18 12:35:55;;;;;;;68.05;38.47;;;;;;;23.00;52.58;101397.00;16117631;19;130184;-53
2023/08/18 12:41:17;;;;;;;72.03;39.05;;;;;;;23.03;52.83;101399.22;16123098;19;132011;-51
2023/08/18 12:46:38;;;;;;;73.10;38.08;;;;;;;23.07;52.69;101384.75;16110849;19;133015;-52
2023/08/18 12:52:01;;;;;;;56.58;34.45;;;;;;;23.07;52.76;101387.53;16120619;19;129474;-54
2023/08/18 12:57:23;;;;;;;51.95;32.75;;;;;;;23.07;52.55;101384.75;16123169;19;130991;-52
2023/08/18 13:02:44;;;;;;;55.97;29.50;;;;;;;23.07;52.82;101377.25;16123248;19;130654;-52
2023/08/18 13:08:06;;;;;;;48.80;29.77;;;;;;;23.08;52.70;101392.03;16118386;19;131074;-54
2023/08/18 13:13:28;;;;;;;44.17;28.58;;;;;;;23.08;52.57;101383.66;16122884;19;130876;-53
2023/08/18 13:18:50;;;;;;;55.53;27.70;;;;;;;23.08;52.69;101378.91;16121977;19;129390;-54
2023/08/18 13:24:13;;;;;;;39.65;25.95;;;;;;;23.07;52.36;101366.06;16123051;19;129271;-53
2023/08/18 13:29:34;;;;;;;38.03;24.25;;;;;;;23.07;52.17;101370.81;16123842;19;129374;-54
2023/08/18 13:34:56;;;;;;;37.75;24.20;;;;;;;23.09;52.26;101375.00;16123295;19;130008;-57
2023/08/18 13:40:18;;;;;;;38.90;23.73;;;;;;;23.10;52.34;101364.69;16123572;19;129441;-58
2023/08/18 13:45:40;;;;;;;36.10;22.85;;;;;;;23.11;52.45;101363.59;16122207;19;129805;-59
2023/08/18 13:51:02;;;;;;;32.92;21.88;;;;;;;23.11;51.98;101366.38;16122443;19;131512;-56
2023/08/18 13:56:25;;;;;;;40.72;21.63;;;;;;;23.12;52.17;101360.53;16118957;19;129616;-57
2023/08/18 14:01:47;;;;;;;34.15;20.77;;;;;;;23.12;52.13;101351.31;16108508;19;131979;-55
2023/08/18 14:07:09;;;;;;;34.35;21.60;;;;;;;23.12;52.11;101335.41;16121239;19;129566;-51
2023/08/18 14:12:30;;;;;;;30.95;20.45;;;;;;;23.14;52.28;101329.56;16119596;19;129477;-50
2023/08/18 14:17:53;;;;;;;31.00;20.42;;;;;;;23.15;52.02;101322.84;16123934;19;130907;-53
2023/08/18 14:23:15;;;;;;;31.35;19.38;;;;;;;23.16;51.89;101318.97;16119755;19;131307;-52
2023/08/18 14:28:37;;;;;;;33.92;20.25;;;;;;;23.17;51.98;101320.66;16117576;19;130912;-48
2023/08/18 14:33:59;;;;;;;31.08;20.50;;;;;;;23.17;52.12;101309.47;16119251;19;129758;-50
2023/08/18 14:39:21;;;;;;;34.97;19.45;;;;;;;23.16;52.06;101316.16;16116695;19;130941;-49
2023/08/18 14:44:43;;;;;;;27.48;18.75;;;;;;;23.16;52.07;101300.28;16118452;19;129600;-49
2023/08/18 14:50:06;;;;;;;29.33;19.15;;;;;;;23.15;52.04;101300.53;16117293;19;130471;-54
2023/08/18 14:55:28;;;;;;;28.30;18.75;;;;;;;23.15;52.38;101300.53;16111337;19;130785;-53
2023/08/18 15:00:51;;;;;;;27.65;18.40;;;;;;;23.16;51.78;101296.63;16115643;19;130782;-50
2023/08/18 15:06:13;;;;;;;26.92;17.60;;;;;;;23.16;52.06;101291.91;16116137;19;130080;-53
2023/08/18 15:11:37;;;;;;;26.80;17.77;;;;;;;23.17;52.15;101278.78;16117639;19;130695;-48
2023/08/18 15:16:59;;;;;;;26.33;17.92;;;;;;;23.16;51.73;101275.16;16116979;19;130091;-49
2023/08/18 15:22:21;;;;;;;26.63;16.95;;;;;;;23.16;52.05;101268.72;16115531;19;128979;-50
2023/08/18 15:27:45;;;;;;;24.40;17.02;;;;;;;23.17;52.02;101254.50;16110766;19;130019;-52
2023/08/18 15:33:07;;;;;;;24.02;16.75;;;;;;;23.15;51.90;101253.09;16113608;19;130875;-53
2023/08/18 15:38:29;;;;;;;23.92;16.73;;;;;;;23.16;52.08;101260.34;16110297;19;131630;-54
2023/08/18 15:43:51;;;;;;;23.70;16.48;;;;;;;23.16;52.12;101257.56;16105417;19;129438;-55
2023/08/18 15:49:15;;;;;;;23.73;17.42;;;;;;;23.15;51.94;101253.09;16113159;19;129344;-54
2023/08/18 15:54:37;;;;;;;24.95;18.52;;;;;;;23.14;52.05;101245.84;16106845;19;129390;-55
2023/08/18 15:59:59;;;;;;;25.08;17.63;;;;;;;23.13;52.18;101246.97;16108712;19;132042;-51
2023/08/18 16:05:21;;;;;;;26.77;17.67;;;;;;;23.12;51.89;101226.56;16109513;19;129702;-55
2023/08/18 16:10:45;;;;;;;26.30;18.98;;;;;;;23.12;51.87;101225.75;16123844;19;134068;-52
2023/08/18 16:16:07;;;;;;;26.90;19.50;;;;;;;23.11;51.78;101210.09;16125042;19;130878;-51
2023/08/18 16:21:29;;;;;;;24.48;17.48;;;;;;;23.11;51.65;101224.06;16122146;19;130497;-52
2023/08/18 16:26:52;;;;;;;28.95;18.75;;;;;;;23.10;52.12;101226.00;16126921;19;130792;-58
2023/08/18 16:32:15;;;;;;;25.95;18.17;;;;;;;23.10;51.90;101230.75;16125754;19;130010;-57
2023/08/18 16:37:37;;;;;;;25.15;18.45;;;;;;;23.09;52.14;101223.47;16123851;19;129504;-58
2023/08/18 16:42:59;;;;;;;25.73;19.08;;;;;;;23.07;52.14;101222.91;16124725;19;131764;-57
2023/08/18 16:48:21;;;;;;;25.58;18.48;;;;;;;23.05;51.96;101212.84;16124319;19;129619;-57
2023/08/18 16:53:43;;;;;;;26.45;18.45;;;;;;;23.04;51.97;101205.59;16122931;19;129315;-58
2023/08/18 16:59:05;;;;;;;23.35;17.77;;;;;;;23.05;52.03;101223.19;16119960;19;129658;-57
2023/08/18 17:04:27;;;;;;;25.02;17.77;;;;;;;23.05;52.14;101224.00;16122251;19;129399;-57
2023/08/18 17:09:50;;;;;;;23.80;18.80;;;;;;;23.07;51.91;101225.69;16125573;19;129483;-58
2023/08/18 17:15:11;;;;;;;24.27;18.27;;;;;;;23.05;51.66;101204.47;16124035;19;129835;-58
2023/08/18 17:20:33;;;;;;;22.65;17.85;;;;;;;23.04;51.99;101205.59;16120484;19;130780;-58
2023/08/18 17:25:55;;;;;;;21.92;17.77;;;;;;;23.04;51.89;101199.19;16124882;19;130413;-58
2023/08/18 17:31:17;;;;;;;24.20;18.50;;;;;;;23.04;52.07;101188.84;16118083;19;129604;-58
2023/08/18 17:36:39;;;;;;;24.67;18.73;;;;;;;23.04;51.96;101186.06;16121060;19;130962;-58
2023/08/18 17:42:03;;;;;;;24.52;18.45;;;;;;;23.04;51.95;101194.41;16122387;19;132450;-58
2023/08/18 17:47:25;;;;;;;24.17;18.52;;;;;;;23.05;51.99;101178.53;16121340;19;130419;-57
2023/08/18 17:52:47;;;;;;;22.67;17.48;;;;;;;23.04;52.10;101176.84;16122608;19;130226;-58
2023/08/18 17:58:09;;;;;;;21.00;16.63;;;;;;;23.03;51.98;101176.00;16121165;19;130761;-61
2023/08/18 18:03:31;;;;;;;23.02;18.45;;;;;;;23.02;51.69;101182.69;16116070;19;129795;-58
2023/08/18 18:08:53;;;;;;;22.15;18.02;;;;;;;23.01;52.15;101195.00;16118395;19;129886;-57
2023/08/18 18:14:15;;;;;;;21.67;17.20;;;;;;;23.00;52.17;101204.47;16117235;19;130623;-55
2023/08/18 18:19:38;;;;;;;24.52;18.27;;;;;;;22.98;52.11;101201.09;16118702;19;130178;-60
2023/08/18 18:25:03;;;;;;;22.40;17.33;;;;;;;22.98;52.39;101203.88;16116462;19;130486;-58
2023/08/18 18:30:25;;;;;;;21.40;17.67;;;;;;;22.96;52.23;101197.72;16113162;19;131628;-56
2023/08/18 18:35:47;;;;;;;19.85;16.77;;;;;;;22.96;52.26;101191.28;16115085;19;130269;-58
2023/08/18 18:41:09;;;;;;;22.60;18.23;;;;;;;22.94;52.41;101193.53;16116653;19;131251;-58
2023/08/18 18:46:31;;;;;;;21.55;17.00;;;;;;;22.93;52.56;101181.53;16122570;19;129514;-57
2023/08/18 18:51:53;;;;;;;23.88;18.27;;;;;;;22.91;52.53;101177.34;16125754;19;130575;-56
2023/08/18 18:57:15;;;;;;;20.25;17.23;;;;;;;22.91;52.58;101169.78;16125773;19;129560;-58
2023/08/18 19:02:37;;;;;;;20.80;17.50;;;;;;;22.89;52.47;101170.03;16128681;19;129457;-58
2023/08/18 19:07:59;;;;;;;24.35;18.08;;;;;;;22.88;52.53;101179.50;16125507;19;131129;-57
2023/08/18 19:13:21;;;;;;;23.85;19.13;;;;;;;22.87;52.76;101182.59;16127147;19;129801;-58
2023/08/18 19:18:42;;;;;;;22.75;17.95;;;;;;;22.87;53.03;101172.25;16125353;19;131648;-55
2023/08/18 19:24:05;;;;;;;23.30;18.58;;;;;;;22.87;52.50;101186.19;16121083;19;130314;-55
2023/08/18 19:29:27;;;;;;;22.70;18.65;;;;;;;22.88;52.69;101184.28;16122899;19;130947;-56
2023/08/18 19:34:50;;;;;;;24.25;18.35;;;;;;;22.88;52.88;101189.84;16121304;19;129073;-55
2023/08/18 19:40:12;;;;;;;26.83;19.95;;;;;;;22.88;52.96;101192.63;16121965;19;130350;-57
2023/08/18 19:45:34;;;;;;;25.25;19.60;;;;;;;22.86;53.32;101189.28;16122724;19;131004;-56
2023/08/18 19:50:56;;;;;;;28.20;20.33;;;;;;;22.86;52.84;101181.72;16109505;19;129408;-57
2023/08/18 19:56:18;;;;;;;24.45;19.67;;;;;;;22.86;52.91;101180.91;16108610;19;131555;-57
2023/08/18 20:01:40;;;;;;;25.85;20.13;;;;;;;22.86;53.17;101169.75;16107381;19;129943;-58
2023/08/18 20:07:02;;;;;;;26.35;19.90;;;;;;;22.85;52.93;101168.06;16113308;19;130004;-57
2023/08/18 20:12:25;;;;;;;25.02;20.58;;;;;;;22.84;53.02;101160.81;16108344;19;131150;-58
2023/08/18 20:17:48;;;;;;;24.88;19.52;;;;;;;22.83;53.43;101157.16;16108343;19;129750;-58
2023/08/18 20:23:10;;;;;;;30.05;20.25;;;;;;;22.83;53.38;101159.94;16106598;19;129392;-57
2023/08/18 20:28:32;;;;;;;22.48;19.02;;;;;;;22.85;53.41;101177.25;16095334;19;131812;-57
2023/08/18 20:33:54;;;;;;;24.00;19.52;;;;;;;22.83;53.32;101173.06;16097351;19;130418;-56
2023/08/18 20:39:16;;;;;;;24.67;19.60;;;;;;;22.83;53.46;101171.09;16105884;19;130678;-58
2023/08/18 20:44:37;;;;;;;25.48;21.25;;;;;;;22.82;53.50;101155.50;16102007;19;131312;-57
2023/08/18 20:49:59;;;;;;;26.85;20.92;;;;;;;22.83;53.38;101164.69;16101001;19;130164;-58
2023/08/18 20:55:22;;;;;;;22.75;19.90;;;;;;;22.83;53.44;101161.91;16113900;19;129502;-57
2023/08/18 21:00:46;;;;;;;23.90;19.17;;;;;;;22.81;53.63;101173.34;16124855;19;130415;-58
2023/08/18 21:06:08;;;;;;;24.92;20.58;;;;;;;22.82;53.63;101168.59;16123000;19;130332;-55
2023/08/18 21:11:30;;;;;;;23.85;19.38;;;;;;;22.82;53.36;101168.59;16122181;19;130401;-57
2023/08/18 21:16:52;;;;;;;24.33;19.33;;;;;;;22.80;53.56;101156.84;16120468;19;131486;-58
2023/08/18 21:22:14;;;;;;;23.27;19.17;;;;;;;22.81;53.39;101158.53;16124053;19;129440;-58
2023/08/18 21:27:36;;;;;;;22.08;18.92;;;;;;;22.81;53.39;101155.75;16123515;19;129182;-58
2023/08/18 21:32:59;;;;;;;20.55;18.33;;;;;;;22.81;53.51;101144.59;16124811;19;130243;-58
2023/08/18 21:38:21;;;;;;;23.80;19.45;;;;;;;22.80;53.78;101132.63;16125618;19;128978;-57
2023/08/18 21:43:43;;;;;;;24.85;18.95;;;;;;;22.80;53.39;101138.19;16123875;19;132612;-57
2023/08/18 21:49:06;;;;;;;19.92;17.70;;;;;;;22.80;53.48;101126.19;16122900;19;130939;-57
2023/08/18 21:54:28;;;;;;;22.02;18.08;;;;;;;22.79;53.37;101125.34;16123817;19;129658;-57
2023/08/18 21:59:51;;;;;;;23.67;18.70;;;;;;;22.80;53.31;101123.38;16120243;19;130465;-58
2023/08/18 22:05:14;;;;;;;19.25;16.90;;;;;;;22.80;53.56;101126.19;16123455;19;129979;-58
2023/08/18 22:10:39;;;;;;;19.42;17.17;;;;;;;22.80;53.41;101128.97;16120594;19;131118;-56
2023/08/18 22:16:01;;;;;;;19.70;17.02;;;;;;;22.79;53.46;101116.13;16118840;19;129602;-57
2023/08/18 22:21:23;;;;;;;23.17;17.45;;;;;;;22.79;53.56;101119.78;16119432;19;130686;-57
2023/08/18 22:26:45;;;;;;;20.05;16.95;;;;;;;22.80;53.42;101109.44;16117732;19;129499;-58
2023/08/18 22:32:07;;;;;;;19.92;17.30;;;;;;;22.79;53.53;101107.75;16114733;19;131400;-58
2023/08/18 22:37:29;;;;;;;18.63;16.63;;;;;;;22.79;53.38;101113.34;16116266;19;129171;-57
2023/08/18 22:42:51;;;;;;;19.95;16.45;;;;;;;22.78;53.33;101111.66;16115564;19;129618;-58
2023/08/18 22:48:13;;;;;;;17.95;15.82;;;;;;;22.79;53.30;101107.75;16112795;19;129714;-58
2023/08/18 22:53:36;;;;;;;18.23;15.50;;;;;;;22.79;53.44;101107.75;16109895;19;131275;-56
2023/08/18 22:58:58;;;;;;;17.85;16.05;;;;;;;22.77;53.60;101099.69;16114749;19;134554;-59
2023/08/18 23:04:20;;;;;;;18.50;16.02;;;;;;;22.78;53.46;101095.78;16113726;19;129802;-57
2023/08/18 23:09:42;;;;;;;16.95;15.10;;;;;;;22.77;53.25;101104.44;16118766;19;129837;-58
2023/08/18 23:15:07;;;;;;;18.33;15.90;;;;;;;22.76;53.32;101098.00;16115758;19;129506;-58
2023/08/18 23:20:30;;;;;;;;;;;;;;;22.72;53.05;101086.53;16114740;19;129565;-56
2023/08/18 23:25:52;;;;;;;17.63;15.48;;;;;;;22.76;53.14;101088.81;16114121;19;130098;-58
2023/08/18 23:31:14;;;;;;;17.42;15.30;;;;;;;22.74;53.20;101089.06;16111341;19;129435;-57
2023/08/18 23:36:36;;;;;;;15.98;14.38;;;;;;;22.74;53.32;101086.25;16115163;19;129642;-57
2023/08/18 23:41:58;;;;;;;16.95;15.18;;;;;;;22.73;53.11;101079.88;16116129;19;133689;-58
2023/08/18 23:47:21;;;;;;;15.88;14.05;;;;;;;22.73;53.11;101079.00;16111901;19;130043;-58
2023/08/18 23:52:43;;;;;;;15.88;14.23;;;;;;;22.74;53.06;101077.91;16112850;19;130060;-57
2023/08/18 23:58:05;;;;;;;15.93;14.32;;;;;;;22.73;52.88;101071.50;16113097;19;131244;-58
